createdAt,value
2022-10-12T00:00:45.250Z,30.70
2022-10-12T00:03:17.783Z,24.67
2022-10-12T00:06:00.902Z,23.35
2022-10-12T00:08:34.162Z,26.90
2022-10-12T00:11:08.027Z,24.35
2022-10-12T00:13:41.027Z,28.23
2022-10-12T00:16:15.746Z,23.52
2022-10-12T00:18:50.831Z,27.25
2022-10-12T00:21:24.136Z,25.33
2022-10-12T00:23:57.198Z,26.73
2022-10-12T00:26:29.546Z,31.83
2022-10-12T00:29:03.984Z,30.08
2022-10-12T00:31:36.312Z,32.03
2022-10-12T00:34:09.387Z,34.75
2022-10-12T00:36:41.817Z,48.13
2022-10-12T00:39:14.110Z,36.50
2022-10-12T00:41:46.495Z,32.83
2022-10-12T00:44:39.127Z,29.88
2022-10-12T00:47:28.062Z,30.92
2022-10-12T00:50:04.188Z,28.88
2022-10-12T00:52:42.422Z,35.47
2022-10-12T00:55:18.791Z,36.50
2022-10-12T00:57:52.627Z,30.15
2022-10-12T01:00:26.563Z,36.17
2022-10-12T01:02:59.781Z,35.35
2022-10-12T01:05:32.927Z,37.90
2022-10-12T01:08:05.715Z,32.45
2022-10-12T01:10:38.059Z,39.63
2022-10-12T01:13:11.849Z,40.15
2022-10-12T01:15:53.167Z,39.28
2022-10-12T01:18:34.074Z,45.15
2022-10-12T01:21:14.995Z,39.33
2022-10-12T01:24:14.317Z,43.08
2022-10-12T01:27:22.838Z,41.65
2022-10-12T01:30:06.979Z,43.40
2022-10-12T01:33:09.406Z,51.30
2022-10-12T01:35:51.953Z,42.40
2022-10-12T01:38:36.147Z,37.63
2022-10-12T01:41:12.914Z,41.38
2022-10-12T01:43:45.772Z,45.75
2022-10-12T01:46:44.520Z,45.92
2022-10-12T01:49:19.453Z,39.17
2022-10-12T01:52:20.950Z,39.90
2022-10-12T01:55:21.715Z,43.20
2022-10-12T01:58:08.008Z,40.28
2022-10-12T02:00:46.139Z,41.65
2022-10-12T02:03:24.111Z,40.08
2022-10-12T02:06:02.057Z,45.22
2022-10-12T02:08:38.078Z,41.72
2022-10-12T02:11:12.224Z,36.75
2022-10-12T02:13:48.570Z,40.42
2022-10-12T02:16:26.654Z,42.97
2022-10-12T02:19:00.193Z,41.60
2022-10-12T02:21:34.512Z,43.95
2022-10-12T02:24:09.583Z,42.63
2022-10-12T02:26:45.102Z,46.20
2022-10-12T02:29:21.696Z,48.67
2022-10-12T02:32:01.794Z,43.17
2022-10-12T02:34:38.102Z,39.03
2022-10-12T02:37:18.129Z,42.33
2022-10-12T02:39:53.702Z,39.78
2022-10-12T02:42:41.906Z,42.45
2022-10-12T02:45:24.735Z,42.55
2022-10-12T02:47:59.760Z,38.33
2022-10-12T02:50:33.985Z,36.03
2022-10-12T02:53:07.354Z,40.72
2022-10-12T02:55:47.595Z,37.65
2022-10-12T02:58:20.172Z,39.33
2022-10-12T03:00:52.566Z,39.40
2022-10-12T03:03:24.935Z,42.28
2022-10-12T03:05:57.913Z,37.70
2022-10-12T03:08:30.604Z,34.67
2022-10-12T03:11:03.524Z,36.47
2022-10-12T03:13:35.924Z,34.67
2022-10-12T03:16:10.191Z,37.50
2022-10-12T03:18:42.474Z,36.55
2022-10-12T03:21:15.607Z,40.33
2022-10-12T03:23:47.930Z,39.83
2022-10-12T03:26:20.237Z,34.65
2022-10-12T03:28:52.735Z,36.28
2022-10-12T03:31:25.175Z,43.80
2022-10-12T03:33:57.552Z,37.25
2022-10-12T03:36:30.745Z,37.85
2022-10-12T03:39:03.247Z,35.25
2022-10-12T03:41:35.563Z,35.92
2022-10-12T03:44:07.894Z,36.00
2022-10-12T03:46:40.239Z,37.03
2022-10-12T03:49:12.542Z,36.83
2022-10-12T03:51:45.618Z,41.47
2022-10-12T03:54:17.886Z,34.65
2022-10-12T03:56:50.210Z,33.75
2022-10-12T03:59:22.571Z,33.33
2022-10-12T04:01:55.007Z,35.40
2022-10-12T04:04:27.397Z,30.85
2022-10-12T04:07:00.502Z,37.92
2022-10-12T04:09:32.859Z,34.55
2022-10-12T04:12:05.547Z,36.28
2022-10-12T04:14:37.850Z,42.08
2022-10-12T04:17:10.218Z,34.85
2022-10-12T04:19:42.831Z,36.45
2022-10-12T04:22:15.824Z,37.75
2022-10-12T04:24:48.136Z,34.05
2022-10-12T04:27:20.455Z,34.08
2022-10-12T04:29:52.767Z,47.45
2022-10-12T04:32:25.114Z,34.70
2022-10-12T04:34:57.530Z,40.40
2022-10-12T04:37:30.539Z,36.13
2022-10-12T04:40:03.202Z,39.83
2022-10-12T04:42:35.640Z,38.10
2022-10-12T04:45:08.913Z,38.58
2022-10-12T04:47:41.388Z,56.22
2022-10-12T04:50:14.228Z,67.07
2022-10-12T04:52:47.270Z,42.38
2022-10-12T04:55:19.571Z,33.70
2022-10-12T04:57:51.894Z,34.63
2022-10-12T05:00:24.279Z,38.25
2022-10-12T05:02:56.616Z,33.00
2022-10-12T05:05:28.945Z,33.38
2022-10-12T05:08:02.090Z,32.53
2022-10-12T05:10:34.424Z,35.72
2022-10-12T05:13:06.990Z,34.75
2022-10-12T05:15:39.358Z,37.50
2022-10-12T05:18:11.789Z,45.40
2022-10-12T05:20:44.295Z,38.28
2022-10-12T05:23:17.339Z,37.63
2022-10-12T05:25:49.638Z,35.85
2022-10-12T05:28:22.217Z,33.17
2022-10-12T05:30:54.564Z,35.75
2022-10-12T05:33:26.951Z,36.58
2022-10-12T05:35:59.222Z,38.25
2022-10-12T05:38:32.254Z,36.33
2022-10-12T05:41:04.794Z,31.67
2022-10-12T05:43:37.062Z,39.47
2022-10-12T05:46:14.182Z,37.80
2022-10-12T05:48:46.974Z,30.65
2022-10-12T05:51:19.310Z,36.30
2022-10-12T05:53:52.214Z,35.42
2022-10-12T05:56:24.678Z,40.90
2022-10-12T05:58:56.999Z,28.63
2022-10-12T06:01:29.912Z,39.10
2022-10-12T06:04:02.462Z,40.28
2022-10-12T06:06:34.814Z,37.58
2022-10-12T06:09:07.813Z,41.92
2022-10-12T06:11:40.123Z,39.42
2022-10-12T06:14:12.695Z,44.65
2022-10-12T06:16:44.986Z,38.78
2022-10-12T06:19:17.303Z,45.40
2022-10-12T06:21:49.667Z,38.63
2022-10-12T06:24:22.671Z,38.60
2022-10-12T06:26:55.284Z,38.22
2022-10-12T06:29:27.582Z,41.05
2022-10-12T06:31:59.883Z,39.08
2022-10-12T06:34:32.211Z,40.25
2022-10-12T06:37:04.594Z,42.65
2022-10-12T06:39:37.611Z,40.13
2022-10-12T06:42:10.555Z,44.90
2022-10-12T06:44:54.435Z,40.90
2022-10-12T06:47:26.799Z,42.10
2022-10-12T06:49:59.125Z,48.35
2022-10-12T06:52:31.411Z,42.92
2022-10-12T06:55:05.613Z,43.47
2022-10-12T06:57:38.093Z,48.45
2022-10-12T07:00:11.700Z,42.05
2022-10-12T07:02:44.060Z,40.92
2022-10-12T07:05:16.686Z,41.30
2022-10-12T07:07:48.950Z,43.42
2022-10-12T07:10:22.141Z,45.55
2022-10-12T07:12:54.460Z,43.15
2022-10-12T07:15:26.845Z,39.90
2022-10-12T07:17:59.162Z,47.00
2022-10-12T07:20:31.500Z,48.70
2022-10-12T07:23:03.873Z,46.40
2022-10-12T07:25:36.886Z,45.50
2022-10-12T07:28:09.334Z,42.15
2022-10-12T07:30:41.688Z,46.78
2022-10-12T07:33:13.994Z,49.60
2022-10-12T07:36:12.842Z,49.63
2022-10-12T07:38:47.990Z,47.80
2022-10-12T07:41:20.926Z,43.72
2022-10-12T07:43:55.043Z,48.15
2022-10-12T07:46:27.488Z,43.83
2022-10-12T07:48:59.994Z,37.03
2022-10-12T07:51:32.335Z,40.45
2022-10-12T07:54:04.781Z,39.47
2022-10-12T07:56:38.419Z,37.13
2022-10-12T07:59:10.719Z,40.80
2022-10-12T08:01:43.172Z,37.65
2022-10-12T08:04:15.527Z,36.92
2022-10-12T08:06:47.876Z,41.80
2022-10-12T08:09:20.157Z,36.10
2022-10-12T08:11:53.119Z,39.08
2022-10-12T08:14:25.387Z,34.58
2022-10-12T08:16:57.722Z,37.40
2022-10-12T08:19:35.078Z,39.13
2022-10-12T08:22:07.894Z,36.80
2022-10-12T08:24:40.186Z,34.05
2022-10-12T08:27:13.243Z,36.42
2022-10-12T08:29:46.478Z,37.78
2022-10-12T08:32:18.795Z,37.03
2022-10-12T08:34:51.126Z,39.67
2022-10-12T08:37:23.452Z,38.75
2022-10-12T08:40:00.816Z,32.92
2022-10-12T08:42:51.154Z,32.95
2022-10-12T08:45:34.051Z,35.72
2022-10-12T08:48:13.635Z,32.28
2022-10-12T08:50:51.513Z,40.25
2022-10-12T08:53:27.138Z,28.90
2022-10-12T08:56:00.703Z,27.88
2022-10-12T08:58:36.989Z,35.72
2022-10-12T09:01:21.002Z,29.10
2022-10-12T09:04:07.898Z,35.78
2022-10-12T09:06:44.384Z,35.08
2022-10-12T09:09:43.022Z,33.95
2022-10-12T09:12:31.803Z,33.10
2022-10-12T09:15:10.139Z,30.23
2022-10-12T09:17:47.194Z,28.25
2022-10-12T09:20:21.685Z,27.95
2022-10-12T09:22:58.374Z,31.27
2022-10-12T09:25:31.363Z,25.75
2022-10-12T09:28:15.201Z,21.48
2022-10-12T09:31:04.994Z,23.02
2022-10-12T09:33:44.654Z,20.67
2022-10-12T09:38:52.172Z,22.92
2022-10-12T09:41:28.800Z,20.45
2022-10-12T09:44:03.389Z,21.58
2022-10-12T09:46:40.904Z,22.00
2022-10-12T09:49:13.235Z,21.75
2022-10-12T09:51:46.219Z,19.08
2022-10-12T09:54:22.166Z,18.05
2022-10-12T09:56:54.965Z,19.13
2022-10-12T09:59:30.587Z,17.13
2022-10-12T10:02:14.835Z,19.67
2022-10-12T10:04:49.294Z,19.05
2022-10-12T10:07:26.692Z,24.38
2022-10-12T10:10:14.802Z,25.63
2022-10-12T10:12:52.522Z,21.55
2022-10-12T10:15:27.977Z,19.98
2022-10-12T10:18:03.345Z,22.40
2022-10-12T10:20:41.887Z,21.40
2022-10-12T10:23:25.013Z,20.80
2022-10-12T10:25:59.442Z,26.27
2022-10-12T10:28:33.787Z,19.10
2022-10-12T10:31:16.590Z,20.98
2022-10-12T10:34:12.980Z,17.08
2022-10-12T10:36:47.079Z,19.92
2022-10-12T10:39:23.194Z,18.77
2022-10-12T10:41:55.750Z,21.20
2022-10-12T10:44:30.787Z,18.80
2022-10-12T10:47:08.872Z,19.40
2022-10-12T10:49:47.204Z,18.95
2022-10-12T10:52:24.230Z,16.77
2022-10-12T10:55:17.484Z,16.42
2022-10-12T10:58:01.053Z,18.08
2022-10-12T11:00:40.167Z,15.38
2022-10-12T11:05:57.964Z,16.58
2022-10-12T11:08:31.670Z,14.18
2022-10-12T11:11:10.789Z,14.88
2022-10-12T11:13:48.607Z,16.13
2022-10-12T11:16:39.547Z,19.48
2022-10-12T11:19:23.325Z,17.35
2022-10-12T11:22:00.121Z,15.27
2022-10-12T11:24:40.372Z,18.13
2022-10-12T11:27:19.966Z,17.73
2022-10-12T11:30:08.939Z,16.27
2022-10-12T11:32:44.827Z,15.60
2022-10-12T11:35:23.231Z,17.50
2022-10-12T11:38:00.483Z,18.05
2022-10-12T11:43:38.749Z,21.08
2022-10-12T11:46:14.204Z,21.52
2022-10-12T11:48:52.595Z,19.40
2022-10-12T11:51:24.893Z,25.48
2022-10-12T11:54:03.816Z,15.85
2022-10-12T11:56:42.545Z,14.45
2022-10-12T11:59:19.248Z,14.00
2022-10-12T12:02:03.842Z,18.08
2022-10-12T12:04:42.343Z,15.00
2022-10-12T12:07:42.390Z,14.98
2022-10-12T12:10:51.362Z,15.68
2022-10-12T12:13:26.369Z,17.92
2022-10-12T12:16:33.219Z,16.83
2022-10-12T12:19:36.822Z,16.20
2022-10-12T12:22:23.619Z,18.80
2022-10-12T12:25:16.015Z,19.95
2022-10-12T12:27:51.871Z,17.48
2022-10-12T12:30:30.415Z,18.02
2022-10-12T12:33:06.015Z,20.27
2022-10-12T12:35:40.831Z,17.00
2022-10-12T12:38:22.639Z,18.63
2022-10-12T12:41:01.334Z,22.02
2022-10-12T12:44:00.310Z,17.40
2022-10-12T12:50:29.530Z,19.65
2022-10-12T12:53:05.998Z,20.38
2022-10-12T12:55:57.290Z,16.13
2022-10-12T12:58:43.623Z,18.60
2022-10-12T13:01:33.347Z,19.20
2022-10-12T13:04:50.195Z,17.27
2022-10-12T13:07:54.836Z,15.63
2022-10-12T13:10:37.207Z,16.55
2022-10-12T13:13:38.977Z,15.32
2022-10-12T13:17:09.514Z,15.02
2022-10-12T13:19:22.190Z,23.95
2022-10-12T13:21:56.208Z,15.13
2022-10-12T13:24:34.135Z,17.90
2022-10-12T13:27:17.589Z,16.90
2022-10-12T13:29:55.031Z,16.98
2022-10-12T13:32:40.077Z,18.83
2022-10-12T13:35:18.656Z,23.25
2022-10-12T13:38:00.549Z,17.33
2022-10-12T13:40:37.491Z,22.05
2022-10-12T13:43:31.366Z,20.30
2022-10-12T13:46:04.805Z,17.35
2022-10-12T13:51:30.961Z,20.27
2022-10-12T13:54:14.748Z,19.27
2022-10-12T13:56:50.130Z,17.50
2022-10-12T13:59:24.718Z,19.58
2022-10-12T14:01:59.986Z,17.58
2022-10-12T14:04:34.574Z,17.73
2022-10-12T14:07:14.772Z,17.85
2022-10-12T14:09:54.197Z,20.42
2022-10-12T14:12:29.658Z,20.33
2022-10-12T14:15:03.355Z,15.38
2022-10-12T14:17:43.759Z,23.65
2022-10-12T14:20:26.154Z,18.85
2022-10-12T14:23:00.774Z,21.77
2022-10-12T14:25:33.220Z,23.08
2022-10-12T14:28:06.854Z,29.15
2022-10-12T14:30:50.675Z,26.27
2022-10-12T14:33:25.539Z,18.17
2022-10-12T14:36:12.320Z,21.88
2022-10-12T14:38:46.401Z,20.50
2022-10-12T14:41:34.415Z,20.92
2022-10-12T14:44:11.706Z,20.13
2022-10-12T14:46:50.054Z,21.52
2022-10-12T14:49:25.350Z,22.60
2022-10-12T14:52:00.120Z,21.50
2022-10-12T14:54:32.457Z,19.00
2022-10-12T14:57:13.150Z,24.95
2022-10-12T14:59:46.740Z,25.17
2022-10-12T15:02:22.066Z,24.70
2022-10-12T15:04:55.624Z,19.63
2022-10-12T15:07:32.092Z,23.15
2022-10-12T15:10:05.035Z,25.52
2022-10-12T15:12:37.459Z,21.40
2022-10-12T15:15:32.119Z,21.42
2022-10-12T15:18:04.678Z,21.38
2022-10-12T15:20:38.756Z,18.67
2022-10-12T15:23:11.215Z,24.17
2022-10-12T15:25:47.854Z,22.35
2022-10-12T15:28:20.945Z,22.33
2022-10-12T15:33:46.449Z,24.83
2022-10-12T15:36:18.733Z,23.55
2022-10-12T15:38:51.006Z,25.33
2022-10-12T15:41:26.103Z,23.63
2022-10-12T15:43:58.384Z,26.48
2022-10-12T15:46:31.371Z,23.45
2022-10-12T15:49:03.645Z,22.75
2022-10-12T15:51:39.883Z,24.67
2022-10-12T15:54:13.467Z,21.63
2022-10-12T15:56:45.863Z,23.98
2022-10-12T15:59:18.136Z,23.30
2022-10-12T16:01:51.158Z,23.45
2022-10-12T16:04:23.476Z,24.30
2022-10-12T16:06:56.187Z,23.05
2022-10-12T16:09:28.503Z,20.00
2022-10-12T16:12:00.803Z,17.05
2022-10-12T16:14:33.089Z,18.95
2022-10-12T16:17:06.046Z,18.48
2022-10-12T16:19:38.371Z,61.88
2022-10-12T16:22:11.167Z,21.63
2022-10-12T16:24:43.486Z,15.00
2022-10-12T16:27:16.947Z,15.02
2022-10-12T16:29:49.497Z,12.20
2022-10-12T16:32:22.539Z,10.63
2022-10-12T16:34:54.881Z,9.95
2022-10-12T16:37:27.208Z,7.93
2022-10-12T16:40:00.078Z,7.53
2022-10-12T16:42:32.951Z,9.73
2022-10-12T16:45:06.458Z,11.07
2022-10-12T16:47:42.693Z,11.65
2022-10-12T16:50:16.041Z,8.23
2022-10-12T16:52:48.742Z,7.30
2022-10-12T16:55:27.177Z,7.72
2022-10-12T16:57:59.450Z,8.93
2022-10-12T17:00:31.875Z,9.02
2022-10-12T17:03:04.967Z,10.77
2022-10-12T17:05:37.336Z,8.95
2022-10-12T17:08:15.117Z,9.48
2022-10-12T17:10:48.523Z,9.15
2022-10-12T17:13:20.837Z,9.43
2022-10-12T17:15:53.188Z,7.82
2022-10-12T17:18:26.190Z,12.45
2022-10-12T17:20:58.565Z,14.00
2022-10-12T17:23:30.838Z,11.65
2022-10-12T17:26:03.226Z,14.60
2022-10-12T17:28:36.742Z,13.13
2022-10-12T17:31:11.801Z,15.05
2022-10-12T17:33:45.004Z,14.73
2022-10-12T17:36:19.354Z,12.10
2022-10-12T17:38:54.145Z,11.88
2022-10-12T17:41:27.866Z,11.40
2022-10-12T17:44:00.311Z,12.15
2022-10-12T17:46:32.650Z,8.15
2022-10-12T17:49:06.203Z,9.38
2022-10-12T17:51:38.481Z,9.30
2022-10-12T17:54:10.790Z,9.02
2022-10-12T17:56:43.575Z,7.25
2022-10-12T17:59:18.059Z,9.73
2022-10-12T18:01:51.819Z,7.90
2022-10-12T18:04:24.806Z,7.55
2022-10-12T18:06:57.169Z,8.63
2022-10-12T18:09:30.372Z,6.72
2022-10-12T18:12:02.834Z,12.55
2022-10-12T18:14:35.124Z,23.83
2022-10-12T18:17:07.494Z,22.60
2022-10-12T18:19:40.496Z,12.43
2022-10-12T18:22:12.843Z,8.30
2022-10-12T18:24:45.175Z,3.85
2022-10-12T18:27:17.610Z,5.03
2022-10-12T18:29:49.958Z,4.43
2022-10-12T18:32:22.452Z,10.38
2022-10-12T18:34:55.443Z,6.68
2022-10-12T18:37:27.792Z,7.18
2022-10-12T18:40:00.139Z,6.15
2022-10-12T18:42:32.487Z,6.63
2022-10-12T18:45:05.589Z,11.93
2022-10-12T18:47:39.053Z,42.50
2022-10-12T18:50:12.136Z,32.22
2022-10-12T18:52:44.555Z,17.10
2022-10-12T18:55:17.114Z,17.58
2022-10-12T18:57:49.426Z,9.30
2022-10-12T19:00:21.879Z,6.18
2022-10-12T19:02:54.226Z,9.00
2022-10-12T19:05:27.218Z,11.43
2022-10-12T19:07:59.502Z,14.75
2022-10-12T19:10:31.779Z,10.98
2022-10-12T19:13:04.068Z,9.35
2022-10-12T19:15:37.157Z,9.63
2022-10-12T19:18:09.430Z,8.35
2022-10-12T19:20:42.395Z,6.80
2022-10-12T19:23:14.698Z,10.68
2022-10-12T19:25:47.483Z,8.75
2022-10-12T19:28:19.841Z,9.63
2022-10-12T19:30:52.178Z,12.35
2022-10-12T19:33:25.340Z,15.70
2022-10-12T19:35:58.279Z,9.23
2022-10-12T19:38:30.806Z,19.05
2022-10-12T19:41:03.216Z,10.10
2022-10-12T19:43:36.274Z,28.27
2022-10-12T19:46:10.691Z,44.25
2022-10-12T19:48:46.651Z,32.03
2022-10-12T19:51:21.143Z,27.70
2022-10-12T19:53:54.711Z,28.60
2022-10-12T19:56:28.702Z,23.50
2022-10-12T19:59:01.092Z,27.98
2022-10-12T20:01:35.727Z,23.05
2022-10-12T20:04:11.128Z,26.83
2022-10-12T20:06:44.106Z,19.70
2022-10-12T20:09:16.650Z,15.40
2022-10-12T20:11:49.059Z,23.50
2022-10-12T20:14:21.434Z,19.70
2022-10-12T20:16:54.010Z,25.83
2022-10-12T20:19:26.361Z,27.77
2022-10-12T20:21:59.393Z,40.30
2022-10-12T20:24:31.674Z,35.53
2022-10-12T20:27:04.010Z,38.97
2022-10-12T20:29:36.243Z,35.70
2022-10-12T20:32:08.535Z,35.10
2022-10-12T20:34:40.851Z,31.33
2022-10-12T20:37:16.093Z,34.13
2022-10-12T20:39:52.024Z,30.25
2022-10-12T20:42:24.810Z,36.42
2022-10-12T20:44:57.265Z,25.63
2022-10-12T20:47:29.554Z,41.45
2022-10-12T20:50:01.926Z,37.30
2022-10-12T20:52:35.971Z,31.80
2022-10-12T20:55:09.600Z,49.47
2022-10-12T20:57:41.889Z,39.65
2022-10-12T21:00:14.538Z,39.83
2022-10-12T21:02:46.887Z,34.55
2022-10-12T21:05:19.277Z,33.72
2022-10-12T21:07:52.210Z,43.78
2022-10-12T21:10:24.663Z,91.25
2022-10-12T21:12:57.065Z,122.28
2022-10-12T21:15:29.346Z,82.60
2022-10-12T21:18:01.662Z,86.03
2022-10-12T21:20:33.947Z,57.72
2022-10-12T21:23:06.945Z,54.38
2022-10-12T21:25:39.259Z,53.83
2022-10-12T21:28:11.684Z,52.30
2022-10-12T21:30:45.375Z,57.80
2022-10-12T21:33:18.658Z,77.95
2022-10-12T21:35:50.966Z,60.47
2022-10-12T21:38:24.039Z,63.13
2022-10-12T21:40:58.190Z,55.53
2022-10-12T21:43:30.584Z,70.45
2022-10-12T21:46:03.876Z,53.53
2022-10-12T21:48:36.196Z,47.08
2022-10-12T21:51:08.842Z,36.63
2022-10-12T21:53:42.135Z,45.30
2022-10-12T21:56:16.722Z,36.80
2022-10-12T21:58:50.166Z,43.85
2022-10-12T22:01:24.393Z,37.78
2022-10-12T22:03:58.369Z,35.83
2022-10-12T22:06:31.276Z,34.90
2022-10-12T22:09:08.486Z,36.30
2022-10-12T22:11:40.778Z,34.67
2022-10-12T22:14:18.246Z,39.00
2022-10-12T22:16:50.499Z,29.33
2022-10-12T22:19:22.800Z,28.08
2022-10-12T22:21:55.078Z,20.85
2022-10-12T22:24:33.596Z,36.20
2022-10-12T22:27:05.901Z,22.58
2022-10-12T22:29:38.285Z,24.23
2022-10-12T22:32:10.558Z,21.58
2022-10-12T22:34:42.833Z,27.70
2022-10-12T22:37:15.121Z,32.10
2022-10-12T22:39:48.060Z,32.75
2022-10-12T22:42:20.658Z,32.97
2022-10-12T22:44:53.124Z,34.63
2022-10-12T22:47:25.448Z,25.83
2022-10-12T22:49:57.719Z,30.10
2022-10-12T22:52:31.373Z,29.73
2022-10-12T22:55:05.089Z,21.88
2022-10-12T22:57:37.367Z,30.52
2022-10-12T23:00:10.951Z,31.73
2022-10-12T23:02:43.222Z,24.50
2022-10-12T23:05:15.568Z,27.88
2022-10-12T23:07:47.861Z,33.05
2022-10-12T23:10:21.173Z,35.80
2022-10-12T23:12:53.527Z,27.80
2022-10-12T23:15:25.975Z,32.88
2022-10-12T23:17:59.002Z,31.80
2022-10-12T23:20:31.364Z,30.15
2022-10-12T23:23:07.275Z,24.08
2022-10-12T23:25:40.258Z,28.20
2022-10-12T23:28:12.613Z,26.17
2022-10-12T23:30:44.934Z,27.08
2022-10-12T23:33:17.218Z,23.65
2022-10-12T23:35:55.314Z,21.23
2022-10-12T23:38:29.402Z,23.65
2022-10-12T23:41:03.942Z,25.23
2022-10-12T23:43:36.351Z,26.00
2022-10-12T23:46:11.075Z,22.65
2022-10-12T23:48:43.370Z,21.00
2022-10-12T23:51:15.764Z,23.02
2022-10-12T23:53:48.111Z,22.23
2022-10-12T23:56:21.137Z,24.50
2022-10-12T23:58:53.534Z,21.02
